createdAt,value
2018-06-11T00:01:45.426Z,18.10
2018-06-11T00:04:14.755Z,19.90
2018-06-11T00:06:43.953Z,21.63
2018-06-11T00:09:25.942Z,17.43
2018-06-11T00:11:54.519Z,29.63
2018-06-11T00:14:23.064Z,16.90
2018-06-11T00:16:51.672Z,19.07
2018-06-11T00:19:20.218Z,20.53
2018-06-11T00:21:48.854Z,18.50
2018-06-11T00:24:17.413Z,24.47
2018-06-11T00:26:46.038Z,17.47
2018-06-11T00:29:14.718Z,17.37
2018-06-11T00:31:43.273Z,21.03
2018-06-11T00:34:11.903Z,18.43
2018-06-11T00:36:40.476Z,19.10
2018-06-11T00:39:09.458Z,17.70
2018-06-11T00:41:38.042Z,19.77
2018-06-11T00:44:06.618Z,20.17
2018-06-11T00:46:35.215Z,20.10
2018-06-11T00:49:03.828Z,20.00
2018-06-11T00:51:32.473Z,23.33
2018-06-11T00:54:01.057Z,19.87
2018-06-11T00:56:29.597Z,21.83
2018-06-11T00:59:09.183Z,18.77
2018-06-11T01:01:38.510Z,27.60
2018-06-11T01:04:08.091Z,24.20
2018-06-11T01:06:36.830Z,20.20
2018-06-11T01:09:07.555Z,20.13
2018-06-11T01:11:36.486Z,20.37
2018-06-11T01:14:05.085Z,20.17
2018-06-11T01:16:34.382Z,22.57
2018-06-11T01:19:03.035Z,21.07
2018-06-11T01:21:31.595Z,22.10
2018-06-11T01:24:00.257Z,22.07
2018-06-11T01:26:28.912Z,22.83
2018-06-11T01:28:57.496Z,30.63
2018-06-11T01:31:26.118Z,23.57
2018-06-11T01:33:54.695Z,25.23
2018-06-11T01:36:23.941Z,20.57
2018-06-11T01:38:52.575Z,24.13
2018-06-11T01:41:21.131Z,20.47
2018-06-11T01:43:49.708Z,22.63
2018-06-11T01:46:18.317Z,26.10
2018-06-11T01:48:46.930Z,30.03
2018-06-11T01:51:15.538Z,22.53
2018-06-11T01:53:44.242Z,24.87
2018-06-11T01:56:12.872Z,21.00
2018-06-11T01:58:41.441Z,30.43
2018-06-11T02:01:10.038Z,25.50
2018-06-11T02:03:38.593Z,22.70
2018-06-11T02:06:07.177Z,26.17
2018-06-11T02:08:35.809Z,24.33
2018-06-11T02:11:06.059Z,29.03
2018-06-11T02:13:34.604Z,27.27
2018-06-11T02:16:03.170Z,28.97
2018-06-11T02:18:31.792Z,36.47
2018-06-11T02:21:00.375Z,26.63
2018-06-11T02:23:28.901Z,28.10
2018-06-11T02:25:57.511Z,29.80
2018-06-11T02:28:26.727Z,38.10
2018-06-11T02:31:09.553Z,27.10
2018-06-11T02:33:38.216Z,29.10
2018-06-11T02:36:06.780Z,26.43
2018-06-11T02:38:35.488Z,28.10
2018-06-11T02:41:04.047Z,38.23
2018-06-11T02:43:33.714Z,27.30
2018-06-11T02:46:02.377Z,38.57
2018-06-11T02:48:30.952Z,28.30
2018-06-11T02:50:59.719Z,27.80
2018-06-11T02:53:28.297Z,38.63
2018-06-11T02:55:57.629Z,28.40
2018-06-11T02:58:26.293Z,28.47
2018-06-11T03:00:54.959Z,30.57
2018-06-11T03:03:23.964Z,34.27
2018-06-11T03:05:52.674Z,38.90
2018-06-11T03:08:21.239Z,28.30
2018-06-11T03:10:49.807Z,39.70
2018-06-11T03:13:18.432Z,30.60
2018-06-11T03:15:46.991Z,28.27
2018-06-11T03:18:15.704Z,38.93
2018-06-11T03:20:44.372Z,27.67
2018-06-11T03:23:12.964Z,28.80
2018-06-11T03:25:41.654Z,41.50
2018-06-11T03:28:10.294Z,27.77
2018-06-11T03:30:39.154Z,29.40
2018-06-11T03:33:07.831Z,30.17
2018-06-11T03:35:36.385Z,27.30
2018-06-11T03:38:05.115Z,27.00
2018-06-11T03:40:51.801Z,28.70
2018-06-11T03:43:20.386Z,29.07
2018-06-11T03:45:48.978Z,31.80
2018-06-11T03:48:18.288Z,24.63
2018-06-11T03:50:47.502Z,31.73
2018-06-11T03:53:16.150Z,30.47
2018-06-11T03:55:44.731Z,29.00
2018-06-11T03:58:13.341Z,36.90
2018-06-11T04:00:41.961Z,28.57
2018-06-11T04:03:10.473Z,23.60
2018-06-11T04:05:39.502Z,29.27
2018-06-11T04:08:09.307Z,25.97
2018-06-11T04:10:37.961Z,30.27
2018-06-11T04:13:06.584Z,25.90
2018-06-11T04:15:35.204Z,24.17
2018-06-11T04:18:03.892Z,35.47
2018-06-11T04:20:32.450Z,24.87
2018-06-11T04:23:01.044Z,36.33
2018-06-11T04:25:29.609Z,26.10
2018-06-11T04:27:58.169Z,27.97
2018-06-11T04:30:26.971Z,27.63
2018-06-11T04:32:55.536Z,36.03
2018-06-11T04:35:34.870Z,35.33
2018-06-11T04:38:03.478Z,30.77
2018-06-11T04:40:32.063Z,27.53
2018-06-11T04:43:00.772Z,34.40
2018-06-11T04:45:29.348Z,25.47
2018-06-11T04:47:57.907Z,32.33
2018-06-11T04:50:26.467Z,26.17
2018-06-11T04:52:55.050Z,28.13
2018-06-11T04:55:23.684Z,24.37
2018-06-11T04:57:52.223Z,33.37
2018-06-11T05:00:20.969Z,24.10
2018-06-11T05:02:49.647Z,32.17
2018-06-11T05:05:18.418Z,24.33
2018-06-11T05:07:47.095Z,26.23
2018-06-11T05:10:15.665Z,20.97
2018-06-11T05:12:45.282Z,22.87
2018-06-11T05:15:13.888Z,23.20
2018-06-11T05:17:42.454Z,21.20
2018-06-11T05:20:11.924Z,19.60
2018-06-11T05:22:40.604Z,18.43
2018-06-11T05:25:09.353Z,18.77
2018-06-11T05:27:37.917Z,26.80
2018-06-11T05:30:06.561Z,19.10
2018-06-11T05:32:35.249Z,18.40
2018-06-11T05:35:03.874Z,19.33
2018-06-11T05:37:32.460Z,23.27
2018-06-11T05:40:01.096Z,16.87
2018-06-11T05:42:29.649Z,17.43
2018-06-11T05:44:58.332Z,18.77
2018-06-11T05:47:27.533Z,17.37
2018-06-11T05:49:56.117Z,20.20
2018-06-11T05:52:24.839Z,16.43
2018-06-11T05:54:53.461Z,15.30
2018-06-11T05:57:22.467Z,18.03
2018-06-11T05:59:51.017Z,18.17
2018-06-11T06:02:19.882Z,17.00
2018-06-11T06:04:48.634Z,16.37
2018-06-11T06:07:17.322Z,16.27
2018-06-11T06:09:45.883Z,22.27
2018-06-11T06:12:15.201Z,17.03
2018-06-11T06:14:43.752Z,15.57
2018-06-11T06:17:12.360Z,16.87
2018-06-11T06:19:40.993Z,15.43
2018-06-11T06:22:09.528Z,16.23
2018-06-11T06:24:38.076Z,15.60
2018-06-11T06:27:06.706Z,14.57
2018-06-11T06:29:35.539Z,18.73
2018-06-11T06:32:04.147Z,15.70
2018-06-11T06:34:33.380Z,17.50
2018-06-11T06:37:01.921Z,17.43
2018-06-11T06:39:30.476Z,17.50
2018-06-11T06:41:59.167Z,21.53
2018-06-11T06:44:27.808Z,19.17
2018-06-11T06:46:56.450Z,23.10
2018-06-11T06:49:25.060Z,22.43
2018-06-11T06:51:53.700Z,21.10
2018-06-11T06:54:23.076Z,25.67
2018-06-11T06:56:51.615Z,25.83
2018-06-11T06:59:20.150Z,22.97
2018-06-11T07:01:48.701Z,23.37
2018-06-11T07:04:17.263Z,25.10
2018-06-11T07:06:45.829Z,22.43
2018-06-11T07:09:14.500Z,24.20
2018-06-11T07:11:43.096Z,21.40
2018-06-11T07:14:11.767Z,22.50
2018-06-11T07:16:40.346Z,26.73
2018-06-11T07:19:09.045Z,30.33
2018-06-11T07:21:37.719Z,23.90
2018-06-11T07:24:06.493Z,22.27
2018-06-11T07:26:35.081Z,22.70
2018-06-11T07:29:03.661Z,22.07
2018-06-11T07:31:32.253Z,27.23
2018-06-11T07:34:00.975Z,23.07
2018-06-11T07:36:30.148Z,25.43
2018-06-11T07:38:58.710Z,23.90
2018-06-11T07:41:27.272Z,22.03
2018-06-11T07:43:55.845Z,26.07
2018-06-11T07:46:24.387Z,22.93
2018-06-11T07:48:53.129Z,22.13
2018-06-11T07:51:21.794Z,22.50
2018-06-11T07:53:50.338Z,21.67
2018-06-11T07:56:19.025Z,23.67
2018-06-11T07:58:56.205Z,23.10
2018-06-11T08:01:24.782Z,21.80
2018-06-11T08:03:53.481Z,21.80
2018-06-11T08:06:22.030Z,21.33
2018-06-11T08:08:50.660Z,21.83
2018-06-11T08:11:19.202Z,21.07
2018-06-11T08:13:48.069Z,23.07
2018-06-11T08:16:16.816Z,24.93
2018-06-11T08:18:45.385Z,22.87
2018-06-11T08:21:14.200Z,19.20
2018-06-11T08:23:42.829Z,19.63
2018-06-11T08:26:11.433Z,39.63
2018-06-11T08:28:39.992Z,19.87
2018-06-11T08:31:08.664Z,19.00
2018-06-11T08:33:37.279Z,19.37
2018-06-11T08:36:05.831Z,18.63
2018-06-11T08:38:34.475Z,18.77
2018-06-11T08:41:03.165Z,22.00
2018-06-11T08:43:31.697Z,23.10
2018-06-11T08:46:00.317Z,21.33
2018-06-11T08:48:28.864Z,21.27
2018-06-11T08:50:57.484Z,19.43
2018-06-11T08:53:26.274Z,20.60
2018-06-11T08:55:54.998Z,18.93
2018-06-11T08:58:23.704Z,20.63
2018-06-11T09:00:52.389Z,21.27
2018-06-11T09:03:33.465Z,17.00
2018-06-11T09:06:02.097Z,19.40
2018-06-11T09:08:30.766Z,17.30
2018-06-11T09:11:00.101Z,19.23
2018-06-11T09:13:28.654Z,17.27
2018-06-11T09:15:57.458Z,20.07
2018-06-11T09:18:26.060Z,17.60
2018-06-11T09:20:54.621Z,20.03
2018-06-11T09:23:23.469Z,17.77
2018-06-11T09:25:52.041Z,19.07
2018-06-11T09:28:20.582Z,18.77
2018-06-11T09:30:49.275Z,17.13
2018-06-11T09:33:18.090Z,17.87
2018-06-11T09:35:46.850Z,18.40
2018-06-11T09:38:15.466Z,19.47
2018-06-11T09:40:44.029Z,17.70
2018-06-11T09:43:12.601Z,16.60
2018-06-11T09:45:41.905Z,17.30
2018-06-11T09:48:10.494Z,18.40
2018-06-11T09:50:39.669Z,20.10
2018-06-11T09:53:30.422Z,18.10
2018-06-11T09:55:59.287Z,19.13
2018-06-11T09:58:27.849Z,17.83
2018-06-11T10:00:57.149Z,20.13
2018-06-11T10:03:25.943Z,18.30
2018-06-11T10:05:54.701Z,19.13
2018-06-11T10:08:23.326Z,16.47
2018-06-11T10:10:51.921Z,19.70
2018-06-11T10:13:20.618Z,17.50
2018-06-11T10:15:49.538Z,16.50
2018-06-11T10:18:18.245Z,16.70
2018-06-11T10:20:46.875Z,16.77
2018-06-11T10:23:15.654Z,15.33
2018-06-11T10:25:44.194Z,14.50
2018-06-11T10:28:12.932Z,13.13
2018-06-11T10:30:41.617Z,12.53
2018-06-11T10:33:10.278Z,13.10
2018-06-11T10:35:38.858Z,11.50
2018-06-11T10:38:08.128Z,13.43
2018-06-11T10:40:36.907Z,13.10
2018-06-11T10:43:05.551Z,11.50
2018-06-11T10:45:34.252Z,12.33
2018-06-11T10:48:03.034Z,11.90
2018-06-11T10:50:48.613Z,11.90
2018-06-11T10:53:17.283Z,10.13
2018-06-11T10:55:45.941Z,8.60
2018-06-11T10:58:14.614Z,12.13
2018-06-11T11:00:43.164Z,12.57
2018-06-11T11:03:11.722Z,13.13
2018-06-11T11:05:40.286Z,10.03
2018-06-11T11:08:11.962Z,12.80
2018-06-11T11:10:40.907Z,11.20
2018-06-11T11:13:09.613Z,14.17
2018-06-11T11:15:38.279Z,13.30
2018-06-11T11:18:06.833Z,10.53
2018-06-11T11:20:35.488Z,17.77
2018-06-11T11:23:04.322Z,14.13
2018-06-11T11:25:32.957Z,13.40
2018-06-11T11:28:01.543Z,11.93
2018-06-11T11:30:31.410Z,11.53
2018-06-11T11:33:00.061Z,14.10
2018-06-11T11:35:28.744Z,10.87
2018-06-11T11:37:57.317Z,10.40
2018-06-11T11:40:26.232Z,9.63
2018-06-11T11:42:54.797Z,10.57
2018-06-11T11:45:23.423Z,7.90
2018-06-11T11:47:51.994Z,8.30
2018-06-11T11:50:20.531Z,8.03
2018-06-11T11:52:49.664Z,12.07
2018-06-11T11:55:28.804Z,7.57
2018-06-11T11:58:00.944Z,8.97
2018-06-11T12:00:29.517Z,9.77
2018-06-11T12:02:58.064Z,9.33
2018-06-11T12:05:26.819Z,10.60
2018-06-11T12:07:55.472Z,7.47
2018-06-11T12:10:24.031Z,8.80
2018-06-11T12:12:52.641Z,10.80
2018-06-11T12:15:21.568Z,9.67
2018-06-11T12:17:50.428Z,9.20
2018-06-11T12:20:19.010Z,7.50
2018-06-11T12:22:47.597Z,8.57
2018-06-11T12:25:16.182Z,8.63
2018-06-11T12:27:52.636Z,10.37
2018-06-11T12:30:21.336Z,10.50
2018-06-11T12:32:49.906Z,11.47
2018-06-11T12:35:18.510Z,10.97
2018-06-11T12:37:51.636Z,10.50
2018-06-11T12:40:20.494Z,13.37
2018-06-11T12:42:49.054Z,10.80
2018-06-11T12:45:17.653Z,10.60
2018-06-11T12:47:50.349Z,12.60
2018-06-11T12:50:19.246Z,10.03
2018-06-11T12:52:47.861Z,9.63
2018-06-11T12:55:16.381Z,9.23
2018-06-11T12:57:44.968Z,10.87
2018-06-11T13:00:13.699Z,10.60
2018-06-11T13:02:42.443Z,10.87
2018-06-11T13:05:11.171Z,10.73
2018-06-11T13:07:40.216Z,10.57
2018-06-11T13:10:08.891Z,10.03
2018-06-11T13:12:37.581Z,12.70
2018-06-11T13:15:06.348Z,12.10
2018-06-11T13:17:34.983Z,12.47
2018-06-11T13:20:03.558Z,11.70
2018-06-11T13:22:32.122Z,12.77
2018-06-11T13:25:00.764Z,9.53
2018-06-11T13:27:29.496Z,10.90
2018-06-11T13:29:58.081Z,12.33
2018-06-11T13:32:26.822Z,8.93
2018-06-11T13:34:55.397Z,9.40
2018-06-11T13:37:23.935Z,9.10
2018-06-11T13:39:52.514Z,7.10
2018-06-11T13:42:21.092Z,8.73
2018-06-11T13:44:50.188Z,10.20
2018-06-11T13:47:18.889Z,9.53
2018-06-11T13:49:47.500Z,6.20
2018-06-11T13:52:29.308Z,7.40
2018-06-11T13:54:57.955Z,10.33
2018-06-11T13:57:26.638Z,12.60
2018-06-11T13:59:55.333Z,7.70
2018-06-11T14:02:23.881Z,4.43
2018-06-11T14:04:52.517Z,8.23
2018-06-11T14:07:21.227Z,7.43
2018-06-11T14:09:49.820Z,11.37
2018-06-11T14:12:18.586Z,7.10
2018-06-11T14:14:47.146Z,4.70
2018-06-11T14:17:16.964Z,6.03
2018-06-11T14:19:45.633Z,6.27
2018-06-11T14:22:14.303Z,5.07
2018-06-11T14:24:42.985Z,11.20
2018-06-11T14:27:11.609Z,6.70
2018-06-11T14:29:40.238Z,5.50
2018-06-11T14:32:12.613Z,6.63
2018-06-11T14:34:41.228Z,7.23
2018-06-11T14:37:09.784Z,4.93
2018-06-11T14:39:38.337Z,6.23
2018-06-11T14:42:06.998Z,5.77
2018-06-11T14:44:36.647Z,6.70
2018-06-11T14:47:05.317Z,7.77
2018-06-11T14:49:33.947Z,5.50
2018-06-11T14:52:02.525Z,6.23
2018-06-11T14:54:31.121Z,5.57
2018-06-11T14:57:00.007Z,4.70
2018-06-11T14:59:28.701Z,6.57
2018-06-11T15:01:57.348Z,7.40
2018-06-11T15:04:26.002Z,6.60
2018-06-11T15:06:54.634Z,8.60
2018-06-11T15:09:23.415Z,7.30
2018-06-11T15:11:52.129Z,5.67
2018-06-11T15:14:20.819Z,6.33
2018-06-11T15:16:49.409Z,5.47
2018-06-11T15:19:18.163Z,7.93
2018-06-11T15:21:46.964Z,5.80
2018-06-11T15:24:15.674Z,7.33
2018-06-11T15:27:25.224Z,6.23
2018-06-11T15:29:53.789Z,8.03
2018-06-11T15:32:22.459Z,6.00
2018-06-11T15:34:51.024Z,8.33
2018-06-11T15:37:19.716Z,9.87
2018-06-11T15:39:48.358Z,5.47
2018-06-11T15:42:16.912Z,5.10
2018-06-11T15:44:45.500Z,5.20
2018-06-11T15:47:14.202Z,4.97
2018-06-11T15:49:42.861Z,7.13
2018-06-11T15:52:11.496Z,8.03
2018-06-11T15:54:40.063Z,6.63
2018-06-11T15:57:08.720Z,7.53
2018-06-11T15:59:37.396Z,6.17
2018-06-11T16:02:06.376Z,5.17
2018-06-11T16:04:35.117Z,8.57
2018-06-11T16:07:04.584Z,8.53
2018-06-11T16:09:33.259Z,7.80
2018-06-11T16:12:02.445Z,8.37
2018-06-11T16:14:31.113Z,5.90
2018-06-11T16:16:59.747Z,9.53
2018-06-11T16:19:28.316Z,7.53
2018-06-11T16:21:56.977Z,7.20
2018-06-11T16:24:34.087Z,7.57
2018-06-11T16:27:05.216Z,10.03
2018-06-11T16:29:38.958Z,9.60
2018-06-11T16:32:12.128Z,11.20
2018-06-11T16:34:40.830Z,7.97
2018-06-11T16:37:09.501Z,7.97
2018-06-11T16:39:38.125Z,6.70
2018-06-11T16:42:06.820Z,8.47
2018-06-11T16:44:35.363Z,7.47
2018-06-11T16:47:03.972Z,8.07
2018-06-11T16:49:32.623Z,9.60
2018-06-11T16:52:01.188Z,8.50
2018-06-11T16:54:29.936Z,9.23
2018-06-11T16:56:59.205Z,9.93
2018-06-11T16:59:28.180Z,6.90
2018-06-11T17:01:56.935Z,8.00
2018-06-11T17:04:25.601Z,9.30
2018-06-11T17:06:54.187Z,7.80
2018-06-11T17:09:23.227Z,9.00
2018-06-11T17:11:52.541Z,8.40
2018-06-11T17:14:21.767Z,7.60
2018-06-11T17:16:51.183Z,5.67
2018-06-11T17:19:20.180Z,10.20
2018-06-11T17:21:49.190Z,5.57
2018-06-11T17:24:18.086Z,8.07
2018-06-11T17:27:05.749Z,12.40
2018-06-11T17:29:34.808Z,9.80
2018-06-11T17:32:03.588Z,6.40
2018-06-11T17:34:32.819Z,6.10
2018-06-11T17:37:01.470Z,6.43
2018-06-11T17:39:30.046Z,10.07
2018-06-11T17:41:58.771Z,6.73
2018-06-11T17:44:27.901Z,7.23
2018-06-11T17:46:56.709Z,9.10
2018-06-11T17:49:25.502Z,7.60
2018-06-11T17:51:54.095Z,8.73
2018-06-11T17:54:22.783Z,6.57
2018-06-11T17:56:51.419Z,7.13
2018-06-11T17:59:23.663Z,8.23
2018-06-11T18:01:52.850Z,7.80
2018-06-11T18:04:22.117Z,6.73
2018-06-11T18:06:51.343Z,7.43
2018-06-11T18:09:20.079Z,7.27
2018-06-11T18:11:51.286Z,6.53
2018-06-11T18:14:20.120Z,8.53
2018-06-11T18:16:48.699Z,8.30
2018-06-11T18:19:17.403Z,10.30
2018-06-11T18:21:46.099Z,9.13
2018-06-11T18:24:14.812Z,8.53
2018-06-11T18:26:43.390Z,8.30
2018-06-11T18:29:12.083Z,6.07
2018-06-11T18:31:40.724Z,8.27
2018-06-11T18:34:09.335Z,7.90
2018-06-11T18:36:38.009Z,9.00
2018-06-11T18:39:08.569Z,9.77
2018-06-11T18:41:37.641Z,7.87
2018-06-11T18:44:07.015Z,7.13
2018-06-11T18:46:35.655Z,8.63
2018-06-11T18:49:04.358Z,7.47
2018-06-11T18:51:32.929Z,10.47
2018-06-11T18:54:01.511Z,7.93
2018-06-11T18:56:30.633Z,8.73
2018-06-11T18:58:59.363Z,5.00
2018-06-11T19:01:28.040Z,7.57
2018-06-11T19:03:56.651Z,8.83
2018-06-11T19:06:25.321Z,9.37
2018-06-11T19:08:53.981Z,9.03
2018-06-11T19:11:22.774Z,9.60
2018-06-11T19:13:52.720Z,7.27
2018-06-11T19:16:23.001Z,7.10
2018-06-11T19:18:55.577Z,7.33
2018-06-11T19:21:25.971Z,9.07
2018-06-11T19:24:06.923Z,9.00
2018-06-11T19:26:35.646Z,11.30
2018-06-11T19:29:04.429Z,7.63
2018-06-11T19:31:33.232Z,8.10
2018-06-11T19:34:02.425Z,9.70
2018-06-11T19:36:31.438Z,7.00
2018-06-11T19:42:22.693Z,9.13
2018-06-11T19:44:51.367Z,7.77
2018-06-11T19:47:20.094Z,10.20
2018-06-11T19:49:48.791Z,7.47
2018-06-11T19:52:18.265Z,9.13
2018-06-11T19:55:13.658Z,7.23
2018-06-11T19:57:43.274Z,8.10
2018-06-11T20:00:11.979Z,10.20
2018-06-11T20:02:41.379Z,12.80
2018-06-11T20:05:38.450Z,14.27
2018-06-11T20:11:37.240Z,11.83
2018-06-11T20:14:05.950Z,10.30
2018-06-11T20:16:35.681Z,13.23
2018-06-11T20:19:04.478Z,12.47
2018-06-11T20:21:33.694Z,10.40
2018-06-11T20:24:03.132Z,9.97
2018-06-11T20:26:31.955Z,17.00
2018-06-11T20:29:00.831Z,11.57
2018-06-11T20:31:29.517Z,11.90
2018-06-11T20:33:58.169Z,11.10
2018-06-11T20:36:26.773Z,10.30
2018-06-11T20:38:55.544Z,9.57
2018-06-11T20:41:37.528Z,10.10
2018-06-11T20:44:06.242Z,9.30
2018-06-11T20:46:35.690Z,13.27
2018-06-11T20:49:04.758Z,8.80
2018-06-11T20:51:33.379Z,10.87
2018-06-11T20:54:02.279Z,10.50
2018-06-11T20:56:30.879Z,12.93
2018-06-11T20:58:59.571Z,10.00
2018-06-11T21:01:28.313Z,11.23
2018-06-11T21:03:56.991Z,11.43
2018-06-11T21:06:25.594Z,11.73
2018-06-11T21:08:54.314Z,13.57
2018-06-11T21:11:23.002Z,13.80
2018-06-11T21:13:51.755Z,11.87
2018-06-11T21:16:21.114Z,10.97
2018-06-11T21:19:17.101Z,13.87
2018-06-11T21:21:46.439Z,12.47
2018-06-11T21:24:15.197Z,11.80
2018-06-11T21:26:43.848Z,11.17
2018-06-11T21:29:12.480Z,15.67
2018-06-11T21:31:41.082Z,14.47
2018-06-11T21:34:09.770Z,12.47
2018-06-11T21:36:38.362Z,14.37
2018-06-11T21:39:08.900Z,13.87
2018-06-11T21:41:37.501Z,14.73
2018-06-11T21:44:06.178Z,13.30
2018-06-11T21:46:34.803Z,14.80
2018-06-11T21:49:03.443Z,13.53
2018-06-11T21:51:32.040Z,14.67
2018-06-11T21:54:01.528Z,16.83
2018-06-11T21:56:30.870Z,14.73
2018-06-11T21:58:59.449Z,15.77
2018-06-11T22:01:28.061Z,16.57
2018-06-11T22:03:56.855Z,16.00
2018-06-11T22:06:25.529Z,16.53
2018-06-11T22:08:54.349Z,17.07
2018-06-11T22:11:22.973Z,16.57
2018-06-11T22:13:51.716Z,15.30
2018-06-11T22:16:20.401Z,17.20
2018-06-11T22:18:49.211Z,15.77
2018-06-11T22:21:17.933Z,15.40
2018-06-11T22:23:46.911Z,16.27
2018-06-11T22:26:15.500Z,16.97
2018-06-11T22:28:44.083Z,17.33
2018-06-11T22:31:12.747Z,16.67
2018-06-11T22:33:41.408Z,16.90
2018-06-11T22:36:09.996Z,18.03
2018-06-11T22:38:38.596Z,17.03
2018-06-11T22:41:07.238Z,16.53
2018-06-11T22:43:35.915Z,17.30
2018-06-11T22:46:04.529Z,15.70
2018-06-11T22:48:33.126Z,23.10
2018-06-11T22:51:01.901Z,16.07
2018-06-11T22:53:30.592Z,19.40
2018-06-11T22:55:59.495Z,21.13
2018-06-11T22:58:28.115Z,16.07
2018-06-11T23:00:56.736Z,15.93
2018-06-11T23:03:25.304Z,20.57
2018-06-11T23:06:04.237Z,18.17
2018-06-11T23:08:33.121Z,19.60
2018-06-11T23:11:02.380Z,20.00
2018-06-11T23:13:31.053Z,17.60
2018-06-11T23:15:59.812Z,21.67
2018-06-11T23:18:28.368Z,19.10
2018-06-11T23:20:57.484Z,16.63
2018-06-11T23:23:26.704Z,16.90
2018-06-11T23:25:55.239Z,25.60
2018-06-11T23:28:23.881Z,21.43
2018-06-11T23:30:52.445Z,19.97
2018-06-11T23:33:21.386Z,19.00
2018-06-11T23:35:50.017Z,20.80
2018-06-11T23:38:18.586Z,20.47
2018-06-11T23:40:47.256Z,29.63
2018-06-11T23:43:15.914Z,20.77
2018-06-11T23:45:44.714Z,28.70
2018-06-11T23:48:13.365Z,20.33
2018-06-11T23:50:41.945Z,20.37
2018-06-11T23:53:10.508Z,27.73
2018-06-11T23:55:40.605Z,22.70
2018-06-11T23:58:09.144Z,28.03
